Helm, CA

6:49 PM PDT on August 23, 2016 (GMT -0700)
GFWS112 | | Change Station

Elev 197 ft 36.65 °N, 120.09 °W | Updated 9 minutes ago

Partly Cloudy
Partly Cloudy
90.4 °F
Feels Like 89 °F
N
0.0
Wind Variable Wind from NW
Gusts 2.0 mph

Today
High -- | Low -- °F
--% Chance of Precip.
Yesterday
High -- | Low -- °F
Precip. -- in
Pressure 29.94 in
Visibility 10.0 miles
Clouds Few 12000 ft
Heat Index 89 °F
Dew Point 58 °F
Humidity 34%
Rainfall 0.00 in
Snow Depth Not available.
6:24 AM 7:40 PM
Waning Gibbous, 62% visible
METAR KNLC 240056Z 01008KT 10SM FEW120 36/09 A2994 RMK AO2 SLP137 RH/18 T03560089
Pressure 29.94 in
Visibility 10.0 miles
Clouds Few 12000 ft
Heat Index 89 °F
Dew Point 58 °F
Humidity 34%
Rainfall 0.00 in
Snow Depth Not available.
6:24 AM 7:40 PM
Waning Gibbous, 62% visible
METAR KNLC 240056Z 01008KT 10SM FEW120 36/09 A2994 RMK AO2 SLP137 RH/18 T03560089

10-Day Weather Forecast

Almanac

Astronomy

Aug. 23, 2016 Rise Set
Actual Time
Civil Twilight
Nautical Twilight
Astronomical Twilight
Moon
Length of Visible Light
Length of Day
Tomorrow will be .
, % of the Moon is Illuminated

Today's Extremes

State Highs State Lows

Community

WunderPhotos

Upload Photos

1,934,520 photos uploaded!

WunderBlog® & News

Nearby

Air Quality

  Air Quality AQ Index Pollutant
Not available.

Snow Depth

Station Depth Elevation

Earthquake Activity

City Distance Mag. Time & Date
Minimum magnitude displayed is 2.5.

Coastal Water Temperatures

Place Temperature

Stations

Nearby Weather Stations

Station Location Temp. Windchill Dew Point Humidity Wind Precip. Elev Updated Type
                   

Watches & Warnings

There are currently no watches in effect.